createdAt,value
2024-02-15T00:00:44.508Z,15.57
2024-02-15T00:03:14.534Z,9.68
2024-02-15T00:05:41.372Z,14.38
2024-02-15T00:08:07.865Z,12.07
2024-02-15T00:10:35.569Z,11.85
2024-02-15T00:13:02.140Z,11.40
2024-02-15T00:15:28.659Z,14.15
2024-02-15T00:17:55.303Z,12.40
2024-02-15T00:20:21.946Z,14.88
2024-02-15T00:22:49.217Z,12.23
2024-02-15T00:25:15.797Z,11.13
2024-02-15T00:27:42.393Z,10.75
2024-02-15T00:30:10.137Z,14.95
2024-02-15T00:32:38.087Z,12.60
2024-02-15T00:35:10.869Z,8.63
2024-02-15T00:37:38.271Z,11.88
2024-02-15T00:40:05.338Z,10.25
2024-02-15T00:42:34.691Z,11.27
2024-02-15T00:45:01.333Z,10.95
2024-02-15T00:47:29.798Z,9.05
2024-02-15T00:49:56.575Z,10.23
2024-02-15T00:52:24.676Z,10.32
2024-02-15T00:54:51.210Z,9.80
2024-02-15T00:57:17.735Z,10.27
2024-02-15T00:59:45.278Z,9.35
2024-02-15T01:02:11.978Z,7.45
2024-02-15T01:04:38.509Z,11.30
2024-02-15T01:07:05.165Z,7.78
2024-02-15T01:09:31.751Z,9.65
2024-02-15T01:11:58.348Z,8.95
2024-02-15T01:14:24.968Z,9.25
2024-02-15T01:16:51.481Z,8.95
2024-02-15T01:19:18.053Z,12.25
2024-02-15T01:21:45.205Z,9.73
2024-02-15T01:24:11.799Z,11.52
2024-02-15T01:26:38.432Z,8.60
2024-02-15T01:29:05.047Z,9.90
2024-02-15T01:31:31.676Z,12.32
2024-02-15T01:33:58.727Z,9.05
2024-02-15T01:36:25.947Z,9.02
2024-02-15T01:38:52.538Z,10.45
2024-02-15T01:41:19.137Z,11.68
2024-02-15T01:43:49.200Z,9.45
2024-02-15T01:46:16.750Z,9.10
2024-02-15T01:48:44.580Z,10.27
2024-02-15T01:51:14.145Z,9.23
2024-02-15T01:53:43.136Z,11.05
2024-02-15T01:56:13.088Z,10.00
2024-02-15T01:58:42.222Z,11.90
2024-02-15T02:01:08.813Z,9.32
2024-02-15T02:03:36.395Z,9.20
2024-02-15T02:06:04.215Z,11.35
2024-02-15T02:08:30.908Z,10.50
2024-02-15T02:10:58.210Z,9.48
2024-02-15T02:13:24.944Z,12.23
2024-02-15T02:15:54.214Z,9.93
2024-02-15T02:18:21.139Z,12.65
2024-02-15T02:20:47.835Z,10.48
2024-02-15T02:23:21.715Z,13.32
2024-02-15T02:28:17.941Z,10.27
2024-02-15T02:30:46.867Z,12.43
2024-02-15T02:33:20.882Z,9.35
2024-02-15T02:35:49.516Z,9.65
2024-02-15T02:38:16.608Z,11.02
2024-02-15T02:40:43.701Z,8.70
2024-02-15T02:43:10.978Z,9.82
2024-02-15T02:45:37.771Z,9.57
2024-02-15T02:48:04.884Z,9.95
2024-02-15T02:50:31.557Z,10.48
2024-02-15T02:52:58.123Z,13.23
2024-02-15T02:55:24.700Z,11.40
2024-02-15T02:57:51.279Z,10.48
2024-02-15T03:00:18.687Z,12.80
2024-02-15T03:02:47.435Z,10.43
2024-02-15T03:05:17.261Z,11.25
2024-02-15T03:07:43.925Z,12.05
2024-02-15T03:10:11.529Z,11.45
2024-02-15T03:12:41.115Z,11.07
2024-02-15T03:15:12.446Z,11.48
2024-02-15T03:17:43.135Z,12.75
2024-02-15T03:20:21.709Z,14.80
2024-02-15T03:22:55.904Z,9.98
2024-02-15T03:25:25.282Z,11.50
2024-02-15T03:28:04.521Z,9.85
2024-02-15T03:30:32.788Z,10.07
2024-02-15T03:32:59.843Z,11.48
2024-02-15T03:35:30.086Z,14.50
2024-02-15T03:37:57.585Z,12.85
2024-02-15T03:40:27.635Z,11.25
2024-02-15T03:42:55.113Z,11.07
2024-02-15T03:45:22.210Z,9.93
2024-02-15T03:47:51.132Z,15.65
2024-02-15T03:50:20.018Z,9.20
2024-02-15T03:52:47.201Z,11.10
2024-02-15T03:55:14.227Z,12.52
2024-02-15T03:57:48.210Z,9.43
2024-02-15T04:00:22.613Z,11.30
2024-02-15T04:02:50.395Z,9.85
2024-02-15T04:05:19.364Z,10.43
2024-02-15T04:07:46.194Z,11.20
2024-02-15T04:10:13.612Z,11.13
2024-02-15T04:12:43.205Z,11.10
2024-02-15T04:15:14.189Z,10.65
2024-02-15T04:17:42.471Z,11.60
2024-02-15T04:20:10.494Z,10.43
2024-02-15T04:25:07.373Z,10.75
2024-02-15T04:30:00.884Z,10.88
2024-02-15T04:32:27.397Z,12.02
2024-02-15T04:34:53.974Z,10.40
2024-02-15T04:37:21.710Z,8.38
2024-02-15T04:39:48.906Z,9.75
2024-02-15T04:42:16.887Z,8.15
2024-02-15T04:44:43.497Z,9.00
2024-02-15T04:47:10.037Z,9.10
2024-02-15T04:49:39.304Z,10.23
2024-02-15T04:52:07.776Z,11.52
2024-02-15T04:54:34.553Z,8.40
2024-02-15T04:57:02.302Z,7.43
2024-02-15T05:02:00.147Z,8.77
2024-02-15T05:04:26.922Z,7.63
2024-02-15T05:06:54.547Z,8.70
2024-02-15T05:11:48.481Z,9.80
2024-02-15T05:14:20.388Z,8.43
2024-02-15T05:16:49.041Z,11.73
2024-02-15T05:19:18.841Z,12.38
2024-02-15T05:21:47.102Z,8.23
2024-02-15T05:24:17.807Z,11.95
2024-02-15T05:26:49.928Z,9.52
2024-02-15T05:29:16.790Z,10.32
2024-02-15T05:31:43.419Z,12.38
2024-02-15T05:34:13.486Z,9.85
2024-02-15T05:36:40.745Z,8.75
2024-02-15T05:39:08.613Z,7.93
2024-02-15T05:41:35.706Z,11.85
2024-02-15T05:44:05.771Z,9.80
2024-02-15T05:46:32.457Z,10.43
2024-02-15T05:49:00.430Z,11.10
2024-02-15T05:51:27.155Z,13.27
2024-02-15T05:53:59.484Z,10.65
2024-02-15T05:56:27.105Z,9.23
2024-02-15T05:58:53.849Z,11.32
2024-02-15T06:01:20.410Z,10.15
2024-02-15T06:03:49.469Z,9.65
2024-02-15T06:06:16.275Z,8.52
2024-02-15T06:08:43.039Z,13.75
2024-02-15T06:11:11.677Z,11.95
2024-02-15T06:13:38.369Z,10.85
2024-02-15T06:16:10.312Z,10.32
2024-02-15T06:18:37.199Z,12.93
2024-02-15T06:21:04.562Z,8.07
2024-02-15T06:23:32.317Z,10.50
2024-02-15T06:25:59.468Z,9.30
2024-02-15T06:28:45.024Z,12.45
2024-02-15T06:31:31.612Z,8.77
2024-02-15T06:34:16.948Z,8.82
2024-02-15T06:48:35.575Z,9.70
2024-02-15T06:51:02.436Z,10.00
2024-02-15T06:53:29.086Z,12.23
2024-02-15T06:55:55.671Z,9.25
2024-02-15T06:58:22.310Z,15.85
2024-02-15T07:00:51.398Z,14.07
2024-02-15T07:03:18.192Z,19.98
2024-02-15T07:05:45.362Z,19.33
2024-02-15T07:08:13.899Z,21.98
2024-02-15T07:10:40.956Z,27.08
2024-02-15T07:13:07.769Z,30.05
2024-02-15T07:15:39.980Z,38.45
2024-02-15T07:18:07.722Z,25.90
2024-02-15T07:23:28.778Z,25.15
2024-02-15T07:38:37.694Z,27.30
2024-02-15T07:41:04.604Z,30.30
2024-02-15T07:43:31.234Z,28.33
2024-02-15T07:45:57.834Z,31.13
2024-02-15T07:48:25.104Z,23.90
2024-02-15T07:50:51.715Z,23.50
2024-02-15T07:53:18.232Z,27.05
2024-02-15T07:55:45.244Z,26.38
2024-02-15T07:58:12.143Z,31.85
2024-02-15T08:00:39.504Z,25.48
2024-02-15T08:03:06.270Z,25.92
2024-02-15T08:05:32.934Z,30.60
2024-02-15T08:47:16.047Z,29.80
2024-02-15T08:49:42.802Z,31.10
2024-02-15T08:52:09.569Z,27.02
2024-02-15T08:54:39.673Z,27.15
2024-02-15T08:57:07.618Z,26.00
2024-02-15T08:59:34.373Z,29.27
2024-02-15T09:02:01.655Z,28.88
2024-02-15T09:04:28.741Z,34.00
2024-02-15T09:09:45.832Z,29.05
2024-02-15T09:26:58.138Z,28.42
2024-02-15T09:29:25.595Z,32.85
2024-02-15T09:31:53.969Z,29.35
2024-02-15T09:34:20.753Z,28.67
2024-02-15T09:36:47.338Z,29.80
2024-02-15T09:39:15.273Z,31.05
2024-02-15T09:41:47.605Z,30.23
2024-02-15T09:44:15.967Z,28.77
2024-02-15T09:46:48.029Z,26.55
2024-02-15T09:49:15.700Z,28.95
2024-02-15T09:54:11.967Z,30.42
2024-02-15T09:56:42.787Z,27.40
2024-02-15T09:59:09.465Z,33.53
2024-02-15T10:01:38.250Z,37.55
2024-02-15T10:04:08.034Z,39.15
2024-02-15T10:06:34.938Z,44.33
2024-02-15T10:09:28.833Z,40.40
2024-02-15T10:12:01.676Z,39.45
2024-02-15T10:14:31.949Z,29.13
2024-02-15T10:17:07.260Z,40.10
2024-02-15T10:19:36.203Z,38.15
2024-02-15T10:22:10.228Z,29.73
2024-02-15T10:24:38.156Z,34.85
2024-02-15T10:27:07.121Z,29.08
2024-02-15T10:29:35.298Z,30.55
2024-02-15T10:32:03.478Z,31.77
2024-02-15T10:34:31.880Z,29.65
2024-02-15T10:37:15.365Z,37.47
2024-02-15T10:39:42.172Z,31.17
2024-02-15T10:42:12.351Z,26.08
2024-02-15T10:44:42.214Z,30.48
2024-02-15T10:47:10.257Z,27.60
2024-02-15T10:49:37.464Z,29.35
2024-02-15T10:52:05.736Z,28.75
2024-02-15T10:54:38.307Z,24.35
2024-02-15T10:57:06.737Z,27.08
2024-02-15T10:59:39.580Z,27.00
2024-02-15T11:02:24.997Z,27.88
2024-02-15T11:04:57.759Z,29.90
2024-02-15T11:07:30.864Z,30.63
2024-02-15T11:10:00.302Z,34.50
2024-02-15T11:12:27.864Z,30.77
2024-02-15T11:14:55.466Z,31.33
2024-02-15T11:20:10.965Z,29.77
2024-02-15T11:22:38.348Z,24.38
2024-02-15T11:25:10.054Z,26.73
2024-02-15T11:27:48.916Z,26.08
2024-02-15T11:30:33.142Z,23.80
2024-02-15T11:33:00.860Z,23.50
2024-02-15T11:35:30.826Z,24.88
2024-02-15T11:38:05.876Z,24.77
2024-02-15T11:41:01.679Z,22.88
2024-02-15T11:43:46.122Z,26.25
2024-02-15T11:46:17.550Z,22.02
2024-02-15T11:48:44.600Z,21.63
2024-02-15T11:51:12.925Z,21.98
2024-02-15T11:53:40.856Z,21.05
2024-02-15T11:56:10.198Z,23.33
2024-02-15T11:58:53.749Z,26.33
2024-02-15T12:01:39.132Z,21.42
2024-02-15T12:04:24.455Z,21.73
2024-02-15T12:07:16.895Z,21.30
2024-02-15T12:10:05.260Z,24.48
2024-02-15T12:12:51.967Z,24.40
2024-02-15T12:15:37.273Z,23.75
2024-02-15T12:18:37.797Z,23.83
2024-02-15T12:21:06.410Z,23.65
2024-02-15T12:23:34.937Z,21.25
2024-02-15T12:26:04.780Z,20.02
2024-02-15T12:28:32.409Z,20.77
2024-02-15T12:33:28.777Z,20.27
2024-02-15T12:36:08.946Z,20.45
2024-02-15T12:38:38.603Z,18.55
2024-02-15T12:41:21.381Z,20.05
2024-02-15T12:43:53.386Z,18.25
2024-02-15T12:46:20.841Z,16.48
2024-02-15T12:48:47.769Z,16.85
2024-02-15T12:51:17.827Z,16.20
2024-02-15T12:53:44.862Z,18.08
2024-02-15T12:56:11.638Z,17.98
2024-02-15T12:58:40.275Z,18.70
2024-02-15T13:01:07.323Z,21.45
2024-02-15T13:03:34.428Z,18.30
2024-02-15T13:06:01.255Z,17.98
2024-02-15T13:08:27.848Z,21.10
2024-02-15T13:10:54.460Z,15.43
2024-02-15T13:13:22.401Z,15.30
2024-02-15T13:15:52.922Z,18.05
2024-02-15T13:18:20.123Z,17.20
2024-02-15T13:20:50.871Z,16.48
2024-02-15T13:23:23.394Z,17.25
2024-02-15T13:25:51.347Z,17.55
2024-02-15T13:28:18.181Z,18.65
2024-02-15T13:30:46.711Z,19.30
2024-02-15T13:33:15.972Z,22.35
2024-02-15T13:35:43.198Z,17.63
2024-02-15T13:38:16.459Z,20.10
2024-02-15T13:40:45.498Z,20.60
2024-02-15T13:43:12.348Z,21.52
2024-02-15T13:45:42.740Z,20.08
2024-02-15T13:48:11.030Z,19.27
2024-02-15T13:50:38.646Z,19.10
2024-02-15T13:55:32.590Z,18.33
2024-02-15T13:57:59.557Z,17.20
2024-02-15T14:00:38.493Z,19.70
2024-02-15T14:03:07.874Z,19.48
2024-02-15T14:05:34.974Z,18.20
2024-02-15T14:08:15.084Z,16.55
2024-02-15T14:10:42.018Z,17.73
2024-02-15T14:13:12.702Z,18.88
2024-02-15T14:15:40.889Z,15.30
2024-02-15T14:18:14.841Z,17.23
2024-02-15T14:20:45.071Z,18.40
2024-02-15T14:23:15.550Z,21.30
2024-02-15T14:25:43.841Z,18.92
2024-02-15T14:28:10.559Z,17.55
2024-02-15T14:30:56.259Z,16.30
2024-02-15T14:33:23.998Z,18.77
2024-02-15T14:35:54.839Z,20.23
2024-02-15T14:38:22.081Z,21.40
2024-02-15T14:40:54.527Z,25.70
2024-02-15T14:43:22.903Z,18.35
2024-02-15T14:45:50.017Z,17.85
2024-02-15T14:48:19.818Z,16.40
2024-02-15T14:50:47.584Z,17.65
2024-02-15T14:53:16.934Z,21.27
2024-02-15T14:55:47.378Z,19.38
2024-02-15T14:58:14.893Z,17.83
2024-02-15T15:00:46.129Z,24.30
2024-02-15T15:03:14.733Z,20.23
2024-02-15T15:06:00.994Z,25.05
2024-02-15T15:08:46.214Z,28.42
2024-02-15T15:11:31.250Z,25.88
2024-02-15T15:13:57.928Z,23.77
2024-02-15T15:16:26.490Z,20.63
2024-02-15T15:18:56.289Z,20.33
2024-02-15T15:21:24.564Z,18.13
2024-02-15T15:23:51.584Z,22.15
2024-02-15T15:26:22.476Z,21.42
2024-02-15T15:28:49.755Z,19.70
2024-02-15T15:31:16.836Z,21.15
2024-02-15T15:33:44.380Z,23.80
2024-02-15T15:36:12.298Z,20.80
2024-02-15T15:38:39.269Z,22.15
2024-02-15T15:41:08.372Z,20.15
2024-02-15T15:43:34.950Z,22.38
2024-02-15T15:46:01.486Z,20.15
2024-02-15T15:48:28.171Z,27.83
2024-02-15T15:50:55.132Z,21.80
2024-02-15T15:53:22.159Z,25.75
2024-02-15T15:55:48.872Z,26.10
2024-02-15T15:58:16.234Z,24.00
2024-02-15T16:00:42.837Z,23.13
2024-02-15T16:03:10.095Z,21.48
2024-02-15T16:05:37.428Z,22.10
2024-02-15T16:08:04.470Z,25.85
2024-02-15T16:10:31.305Z,21.23
2024-02-15T16:12:58.618Z,23.67
2024-02-15T16:15:25.527Z,22.42
2024-02-15T16:17:52.424Z,21.08
2024-02-15T16:20:19.351Z,23.23
2024-02-15T16:22:46.644Z,22.88
2024-02-15T16:25:13.433Z,25.50
2024-02-15T16:27:41.507Z,28.48
2024-02-15T16:30:10.522Z,24.60
2024-02-15T16:32:41.217Z,29.48
2024-02-15T16:35:15.966Z,27.45
2024-02-15T16:37:43.947Z,33.88
2024-02-15T16:40:13.886Z,27.50
2024-02-15T16:42:46.020Z,28.40
2024-02-15T16:45:16.119Z,22.90
2024-02-15T16:47:50.980Z,30.40
2024-02-15T16:50:18.236Z,25.13
2024-02-15T16:52:44.987Z,29.52
2024-02-15T16:55:11.756Z,29.48
2024-02-15T16:57:42.205Z,28.27
2024-02-15T17:00:09.912Z,28.80
2024-02-15T17:05:08.844Z,32.47
2024-02-15T17:07:36.069Z,37.70
2024-02-15T17:10:02.720Z,33.35
2024-02-15T17:12:29.855Z,41.30
2024-02-15T17:14:56.796Z,30.25
2024-02-15T17:17:23.703Z,36.38
2024-02-15T17:19:52.547Z,74.13
2024-02-15T17:22:19.784Z,125.50
2024-02-15T17:24:46.632Z,97.65
2024-02-15T17:27:13.417Z,57.92
2024-02-15T17:29:41.222Z,39.05
2024-02-15T17:32:08.117Z,34.03
2024-02-15T17:34:35.062Z,32.05
2024-02-15T17:37:01.979Z,29.13
2024-02-15T17:39:28.611Z,33.20
2024-02-15T17:41:55.252Z,36.90
2024-02-15T17:44:21.949Z,35.38
2024-02-15T17:46:48.574Z,40.05
2024-02-15T17:49:15.340Z,38.13
2024-02-15T17:51:44.625Z,38.50
2024-02-15T17:54:12.121Z,31.63
2024-02-15T17:56:41.494Z,33.67
2024-02-15T17:59:12.370Z,31.13
2024-02-15T18:01:40.550Z,32.20
2024-02-15T18:04:07.686Z,38.80
2024-02-15T18:06:34.732Z,36.97
2024-02-15T18:09:01.774Z,32.15
2024-02-15T18:11:28.713Z,34.33
2024-02-15T18:13:56.445Z,35.97
2024-02-15T18:18:50.573Z,32.70
2024-02-15T18:21:17.857Z,32.65
2024-02-15T18:23:46.217Z,39.30
2024-02-15T18:26:13.195Z,38.45
2024-02-15T18:28:40.093Z,35.35
2024-02-15T18:31:09.931Z,36.42
2024-02-15T18:33:40.941Z,38.75
2024-02-15T18:36:10.017Z,40.25
2024-02-15T18:38:37.508Z,37.92
2024-02-15T18:41:07.088Z,35.75
2024-02-15T18:43:35.555Z,35.45
2024-02-15T18:46:03.014Z,34.85
2024-02-15T18:48:33.020Z,39.33
2024-02-15T18:50:59.938Z,36.17
2024-02-15T18:53:33.701Z,33.72
2024-02-15T18:56:00.319Z,35.13
2024-02-15T18:58:28.987Z,33.88
2024-02-15T19:00:58.978Z,35.42
2024-02-15T19:03:26.499Z,32.55
2024-02-15T19:05:53.516Z,36.90
2024-02-15T19:08:20.638Z,36.25
2024-02-15T19:10:47.720Z,34.47
2024-02-15T19:13:15.004Z,38.70
2024-02-15T19:15:41.809Z,37.38
2024-02-15T19:18:09.916Z,33.78
2024-02-15T19:20:36.838Z,38.67
2024-02-15T19:23:07.105Z,35.60
2024-02-15T19:25:45.677Z,38.88
2024-02-15T19:28:13.777Z,37.80
2024-02-15T19:30:43.160Z,48.15
2024-02-15T19:33:15.381Z,45.42
2024-02-15T19:35:47.331Z,42.88
2024-02-15T19:38:15.100Z,40.92
2024-02-15T19:43:10.120Z,34.03
2024-02-15T19:45:42.686Z,36.80
2024-02-15T19:48:13.976Z,36.33
2024-02-15T19:50:40.863Z,35.28
2024-02-15T19:53:09.098Z,32.55
2024-02-15T19:55:35.764Z,34.90
2024-02-15T19:58:02.402Z,34.97
2024-02-15T20:00:30.589Z,33.15
2024-02-15T20:02:57.605Z,38.28
2024-02-15T20:05:28.011Z,33.28
2024-02-15T20:07:55.093Z,37.53
2024-02-15T20:10:21.701Z,33.63
2024-02-15T20:12:48.241Z,36.45
2024-02-15T20:15:14.844Z,36.80
2024-02-15T20:17:41.521Z,34.45
2024-02-15T20:20:11.318Z,30.25
2024-02-15T20:22:40.432Z,34.35
2024-02-15T20:25:11.132Z,33.00
2024-02-15T20:27:38.566Z,46.80
2024-02-15T20:30:06.657Z,40.38
2024-02-15T20:32:33.351Z,33.97
2024-02-15T20:35:00.339Z,33.25
2024-02-15T20:37:27.112Z,31.40
2024-02-15T20:39:54.783Z,32.08
2024-02-15T20:44:48.149Z,32.92
2024-02-15T20:47:15.424Z,31.77
2024-02-15T20:49:42.119Z,34.25
2024-02-15T20:52:09.439Z,31.27
2024-02-15T20:54:36.126Z,35.08
2024-02-15T20:57:02.800Z,32.38
2024-02-15T20:59:29.498Z,27.77
2024-02-15T21:01:56.145Z,27.88
2024-02-15T21:04:23.046Z,29.63
2024-02-15T21:06:50.531Z,34.92
2024-02-15T21:09:17.598Z,31.88
2024-02-15T21:11:44.994Z,32.00
2024-02-15T21:14:14.440Z,32.40
2024-02-15T21:16:41.278Z,30.60
2024-02-15T21:19:10.788Z,30.42
2024-02-15T21:21:38.082Z,30.83
2024-02-15T21:24:06.353Z,27.88
2024-02-15T21:26:33.772Z,28.75
2024-02-15T21:29:00.577Z,31.58
2024-02-15T21:31:27.123Z,28.75
2024-02-15T21:33:55.435Z,29.83
2024-02-15T21:36:22.738Z,28.67
2024-02-15T21:38:51.576Z,31.00
2024-02-15T21:41:22.521Z,32.03
2024-02-15T21:43:52.144Z,27.60
2024-02-15T21:46:21.122Z,30.15
2024-02-15T21:48:49.149Z,32.50
2024-02-15T21:51:15.822Z,28.48
2024-02-15T21:53:42.319Z,34.83
2024-02-15T21:56:08.812Z,30.63
2024-02-15T21:58:35.322Z,33.55
2024-02-15T22:01:01.935Z,31.52
2024-02-15T22:03:28.726Z,30.98
2024-02-15T22:05:55.413Z,31.42
2024-02-15T22:08:22.056Z,28.80
2024-02-15T22:10:50.539Z,26.77
2024-02-15T22:13:19.089Z,29.27
2024-02-15T22:15:46.159Z,28.65
2024-02-15T22:18:13.908Z,29.58
2024-02-15T22:20:41.149Z,31.63
2024-02-15T22:23:07.729Z,28.85
2024-02-15T22:25:34.404Z,32.47
2024-02-15T22:28:00.942Z,32.58
2024-02-15T22:30:27.799Z,35.58
2024-02-15T22:32:56.915Z,31.38
2024-02-15T22:35:24.853Z,30.42
2024-02-15T22:40:24.311Z,29.90
2024-02-15T22:42:50.870Z,30.30
2024-02-15T22:45:18.529Z,32.20
2024-02-15T22:47:46.427Z,32.03
2024-02-15T22:50:13.516Z,27.67
2024-02-15T22:52:40.557Z,33.03
2024-02-15T22:55:13.160Z,30.17
2024-02-15T22:57:39.831Z,27.92
2024-02-15T23:00:07.640Z,32.55
2024-02-15T23:05:03.373Z,28.45
2024-02-15T23:07:30.230Z,29.35
2024-02-15T23:09:56.895Z,31.98
2024-02-15T23:12:23.714Z,30.45
2024-02-15T23:14:50.501Z,29.95
2024-02-15T23:17:17.071Z,30.98
2024-02-15T23:19:43.744Z,31.20
2024-02-15T23:22:11.341Z,32.13
2024-02-15T23:24:38.750Z,27.80
2024-02-15T23:27:06.761Z,27.63
2024-02-15T23:29:33.595Z,32.47
2024-02-15T23:32:00.313Z,29.77
2024-02-15T23:34:26.983Z,28.02
2024-02-15T23:37:11.889Z,26.25
2024-02-15T23:39:56.840Z,29.00
2024-02-15T23:42:23.588Z,29.75
2024-02-15T23:44:50.351Z,33.05
2024-02-15T23:47:16.960Z,26.35
2024-02-15T23:49:43.689Z,28.35
2024-02-15T23:52:10.331Z,30.75
2024-02-15T23:54:38.044Z,30.02
2024-02-15T23:59:34.596Z,30.05
